Time;durP1;ratioP1;P1;durP2;ratioP2;P2;SDS_P1;SDS_P2;PMS_P1;PMS_P2;Temp;Humidity;BMP_temperature;BMP_pressure;BME280_temperature;BME280_humidity;BME280_pressure;Samples;Min_cycle;Max_cycle;Signal;HPM_P1;HPM_P2
2021/10/06 00:00:30;;;;;;;;;;;;;;;;;;;;;
2021/10/06 00:13:59;;;;;;;4.85;0.73;;;;;;;10.81;73.50;100223.38;4902631;29;20079;-74
2021/10/06 00:17:01;;;;;;;2.95;0.68;;;;;;;10.79;73.78;100220.06;4891652;29;20040;-76
2021/10/06 00:20:08;;;;;;;5.65;0.57;;;;;;;10.80;73.90;100222.53;4889759;29;20032;-75
2021/10/06 00:32:58;;;;;;;;;;;;;;;;;;;;;
2021/10/06 00:51:20;;;;;;;4.43;0.70;;;;;;;10.44;75.05;100257.19;4894357;29;20041;-76
2021/10/06 00:53:48;;;;;;;1.88;0.70;;;;;;;10.42;74.67;100251.19;4913778;29;20028;-74
2021/10/06 00:56:29;;;;;;;6.93;0.93;;;;;;;10.47;75.38;100281.28;4908258;29;20024;-74
2021/10/06 01:17:05;;;;;;;;;;;;;;;;;;;;;
2021/10/06 01:19:52;;;;;;;2.50;0.40;;;;;;;10.43;74.69;100300.13;4886213;29;20040;-73
2021/10/06 01:22:32;;;;;;;3.22;0.60;;;;;;;10.51;74.88;100306.97;4885220;29;20037;-73
2021/10/06 01:47:07;;;;;;;1.02;0.43;;;;;;;10.48;74.48;100318.44;4860810;29;20158;-76
2021/10/06 01:53:54;;;;;;;2.13;0.50;;;;;;;10.51;74.63;100339.78;4866259;29;20063;-77
2021/10/06 02:00:36;;;;;;;;;;;;;;;;;;;;;
2021/10/06 02:07:27;;;;;;;9.90;0.60;;;;;;;10.40;74.56;100349.88;4852011;29;20384;-76
2021/10/06 02:24:38;;;;;;;3.25;0.73;;;;;;;10.28;75.68;100358.25;4816388;29;20111;-76
2021/10/06 02:37:21;;;;;;;0.98;0.35;;;;;;;10.13;74.88;100341.75;4754093;30;20062;-77
2021/10/06 02:40:12;;;;;;;0.98;0.52;;;;;;;10.22;74.79;100356.59;4837480;29;20044;-77
2021/10/06 02:42:54;;;;;;;2.40;0.52;;;;;;;10.21;74.83;100352.19;4871145;29;20128;-76
2021/10/06 02:45:29;;;;;;;1.05;0.50;;;;;;;10.15;74.87;100347.81;4889042;29;20033;-77
2021/10/06 02:47:57;;;;;;;1.10;0.60;;;;;;;10.08;74.82;100341.75;4874202;29;20033;-77
2021/10/06 02:50:24;;;;;;;5.32;0.50;;;;;;;10.17;74.88;100359.28;4891689;29;20033;-77
2021/10/06 02:52:51;;;;;;;0.80;0.40;;;;;;;9.99;75.33;100324.19;4889383;29;20029;-77
2021/10/06 02:55:20;;;;;;;5.78;1.10;;;;;;;10.09;75.33;100357.03;4876363;29;20041;-81
2021/10/06 02:58:36;;;;;;;;;;;;;;;;;;;;;
2021/10/06 03:05:03;;;;;;;;;;;;;;;;;;;;;
2021/10/06 03:07:40;;;;;;;6.05;0.75;;;;;;;9.72;76.98;100346.97;4939607;29;20023;-78
2021/10/06 03:11:13;;;;;;;1.23;0.38;;;;;;;9.88;76.71;100376.03;4926911;29;20024;-81
2021/10/06 03:14:07;;;;;;;3.15;0.52;;;;;;;9.87;76.69;100390.78;4860929;29;20041;-77
2021/10/06 03:20:53;;;;;;;2.40;0.88;;;;;;;9.83;77.37;100383.38;4839575;29;20074;-78
2021/10/06 03:27:36;;;;;;;1.75;0.52;;;;;;;9.78;77.93;100373.22;4799561;29;20047;-78
2021/10/06 03:30:06;;;;;;;1.73;0.40;;;;;;;9.78;77.61;100365.03;4850988;29;20037;-77
2021/10/06 03:32:31;;;;;;;4.50;0.85;;;;;;;9.72;77.23;100355.97;4870288;29;20126;-77
2021/10/06 03:35:23;;;;;;;4.25;0.52;;;;;;;9.77;77.68;100358.75;4883811;29;20047;-78
2021/10/06 03:37:51;;;;;;;7.30;0.80;;;;;;;9.61;77.40;100362.47;4921468;29;20070;-78
2021/10/06 03:43:43;;;;;;;1.65;0.50;;;;;;;9.69;77.05;100366.63;4918441;29;20100;-77
2021/10/06 03:49:30;;;;;;;4.82;0.77;;;;;;;9.71;77.24;100365.28;4919165;29;20047;-77
2021/10/06 03:52:11;;;;;;;3.17;0.50;;;;;;;9.85;76.55;100387.50;4909789;29;20027;-78
2021/10/06 03:54:56;;;;;;;8.85;0.70;;;;;;;9.83;77.09;100392.41;4878409;29;20036;-77
2021/10/06 03:57:35;;;;;;;;;;;;;;;;;;;;;
2021/10/06 04:09:41;;;;;;;;;;;;;;;;;;;;;
2021/10/06 04:12:48;;;;;;;4.25;0.90;;;;;;;9.90;76.67;100403.94;4907439;29;20052;-73
2021/10/06 04:42:06;;;;;;;1.85;0.70;;;;;;;9.84;75.57;100435.03;4903989;29;20039;-74
2021/10/06 04:44:49;;;;;;;;;;;;;;;;;;;;;
2021/10/06 04:47:29;;;;;;;1.67;0.45;;;;;;;9.81;74.91;100431.97;4909164;29;20096;-74
2021/10/06 04:53:17;;;;;;;2.97;0.60;;;;;;;10.01;73.73;100461.38;4895157;29;20057;-75
2021/10/06 04:55:43;;;;;;;1.73;0.85;;;;;;;9.96;73.57;100465.69;4911173;29;20035;-75
2021/10/06 04:58:17;;;;;;;2.92;0.40;;;;;;;10.07;73.41;100474.78;4896379;29;20041;-76
2021/10/06 05:00:54;;;;;;;0.80;0.40;;;;;;;10.08;73.20;100461.97;4918838;29;20025;-75
2021/10/06 05:03:50;;;;;;;4.63;0.73;;;;;;;9.95;73.34;100453.13;4869144;29;20033;-76
2021/10/06 05:14:10;;;;;;;0.98;0.40;;;;;;;9.99;74.01;100496.31;4866312;29;20082;-77
2021/10/06 05:26:57;;;;;;;7.45;0.55;;;;;;;9.89;75.23;100513.44;4858238;29;20568;-77
2021/10/06 05:33:23;;;;;;;0.28;0.20;;;;;;;9.94;75.18;100519.78;4844822;29;20053;-74
2021/10/06 05:36:57;;;;;;;;;;;;;;;;;;;;;
2021/10/06 05:39:36;;;;;;;;;;;;;;;;;;;;;
2021/10/06 05:45:24;;;;;;;0.88;0.40;;;;;;;9.78;75.61;100539.81;4910077;29;20130;-80
2021/10/06 05:47:56;;;;;;;2.78;0.40;;;;;;;9.86;75.82;100561.22;4893006;29;20036;-79
2021/10/06 05:50:24;;;;;;;3.70;0.40;;;;;;;9.81;75.79;100571.25;4894837;29;20021;-79
2021/10/06 05:52:52;;;;;;;0.40;0.20;;;;;;;9.69;76.07;100552.28;4905337;29;20036;-78
2021/10/06 05:55:28;;;;;;;1.13;0.30;;;;;;;9.74;76.11;100544.16;4922988;29;20147;-78
2021/10/06 05:57:54;;;;;;;4.93;0.68;;;;;;;9.83;75.72;100564.47;4902018;29;20028;-76
2021/10/06 06:00:20;;;;;;;1.98;0.50;;;;;;;9.93;75.76;100575.50;4905271;29;20031;-77
2021/10/06 06:03:39;;;;;;;;;;;;;;;;;;;;;
2021/10/06 06:14:12;;;;;;;2.92;0.45;;;;;;;9.90;75.65;100578.75;4780156;29;20537;-79
2021/10/06 06:21:04;;;;;;;;;;;;;;;;;;;;;
2021/10/06 06:41:30;;;;;;;3.72;0.90;;;;;;;10.20;74.22;100617.56;4836370;29;21801;-74
2021/10/06 06:47:17;;;;;;;1.33;0.40;;;;;;;10.20;74.09;100639.41;4850448;29;20038;-74
2021/10/06 06:50:03;;;;;;;1.65;0.60;;;;;;;10.24;73.88;100651.47;4842180;29;20050;-72
2021/10/06 06:52:31;;;;;;;3.33;0.55;;;;;;;10.31;73.57;100658.38;4855163;29;20048;-74
2021/10/06 06:54:57;;;;;;;1.95;0.65;;;;;;;10.33;73.86;100651.84;4851956;29;20050;-75
2021/10/06 07:02:15;;;;;;;;;;;;;;;;;;;;;
2021/10/06 07:04:13;;;;;;;1.55;0.25;;;;;;;10.38;72.99;100649.19;4874485;29;20133;-78
2021/10/06 07:10:53;;;;;;;1.45;0.40;;;;;;;10.50;72.60;100677.19;4744740;30;20032;-74
2021/10/06 07:13:42;;;;;;;5.10;0.50;;;;;;;10.58;72.65;100690.38;4745510;30;20377;-76
2021/10/06 07:16:07;;;;;;;2.15;0.77;;;;;;;10.63;72.44;100693.16;4811662;29;20046;-74
2021/10/06 07:18:33;;;;;;;1.15;0.40;;;;;;;10.62;73.24;100702.44;4841828;29;20116;-74
2021/10/06 07:21:01;;;;;;;0.50;0.40;;;;;;;10.60;72.83;100699.16;4838066;29;20058;-76
2021/10/06 07:23:51;;;;;;;9.75;0.93;;;;;;;10.73;72.95;100705.28;4855808;29;20045;-76
2021/10/06 07:26:17;;;;;;;1.00;0.30;;;;;;;10.70;73.03;100700.31;4854651;29;20026;-75
2021/10/06 07:28:43;;;;;;;1.17;0.30;;;;;;;10.83;72.23;100705.34;4838818;29;20041;-75
2021/10/06 07:32:08;;;;;;;;;;;;;;;;;;;;;
2021/10/06 07:35:28;;;;;;;7.57;0.60;;;;;;;11.29;71.03;100722.13;4868419;29;20048;-75
2021/10/06 07:38:27;;;;;;;2.08;0.88;;;;;;;11.53;71.05;100705.28;4887620;29;20028;-75
2021/10/06 07:40:53;;;;;;;4.50;1.23;;;;;;;11.59;69.54;100696.00;4890499;29;20069;-77
2021/10/06 07:44:14;;;;;;;1.77;0.40;;;;;;;11.92;69.78;100713.16;4909353;29;20059;-78
2021/10/06 07:57:40;;;;;;;;;;;;;;;;;;;;;
2021/10/06 08:00:50;;;;;;;2.15;1.65;;;;;;;13.05;65.06;100757.31;4870150;29;20117;-76
2021/10/06 08:03:16;;;;;;;1.02;0.45;;;;;;;13.30;63.27;100765.78;4849324;29;20101;-76
2021/10/06 08:05:48;;;;;;;0.35;0.35;;;;;;;13.53;63.39;100761.69;4851065;29;20034;-78
2021/10/06 08:08:48;;;;;;;;;;;;;;;;;;;;;
2021/10/06 08:11:36;;;;;;;;;;;;;;;;;;;;;
2021/10/06 08:18:02;;;;;;;0.60;0.30;;;;;;;14.59;59.61;100788.25;4830790;29;20048;-77
2021/10/06 08:20:43;;;;;;;;;;;;;;;;;;;;;
2021/10/06 08:24:00;;;;;;;3.65;0.20;;;;;;;15.32;57.70;100808.69;4801193;29;20102;-76
2021/10/06 08:26:26;;;;;;;0.80;0.40;;;;;;;15.47;56.42;100802.19;4811797;29;20042;-77
2021/10/06 08:29:32;;;;;;;1.10;0.50;;;;;;;15.79;55.48;100831.16;4816075;29;20043;-76
2021/10/06 08:32:16;;;;;;;;;;;;;;;;;;;;;
2021/10/06 08:38:59;;;;;;;1.48;0.60;;;;;;;16.84;52.05;100814.66;4845567;29;20142;-73
2021/10/06 08:41:25;;;;;;;1.88;0.17;;;;;;;16.82;51.72;100830.72;4851052;29;20460;-74
2021/10/06 08:45:00;;;;;;;2.78;0.73;;;;;;;17.28;52.74;100837.50;4816071;29;20137;-75
2021/10/06 08:47:10;;;;;;;1.30;0.20;;;;;;;17.41;50.09;100828.44;4842893;29;20044;-76
2021/10/06 08:50:24;;;;;;;;;;;;;;;;;;;;;
2021/10/06 09:00:00;;;;;;;0.75;0.30;;;;;;;18.18;46.60;100839.25;4867978;29;20550;-75
2021/10/06 09:02:46;;;;;;;3.65;0.15;;;;;;;18.36;47.75;100831.97;4869916;29;20047;-75
2021/10/06 09:06:49;;;;;;;0.40;0.20;;;;;;;18.82;46.24;100845.66;4867664;29;20127;-75
2021/10/06 09:13:06;;;;;;;1.15;0.30;;;;;;;18.84;44.80;100854.47;4845581;29;20082;-73
2021/10/06 09:25:02;;;;;;;0.28;0.13;;;;;;;17.33;47.59;100858.72;4825791;23;20064;-71
2021/10/06 09:27:30;;;;;;;0.32;0.17;;;;;;;17.59;47.95;100865.44;4905574;29;20525;-72
2021/10/06 09:29:58;;;;;;;0.45;0.30;;;;;;;17.81;47.03;100861.22;4914708;29;20032;-70
2021/10/06 09:32:29;;;;;;;2.17;0.20;;;;;;;18.40;45.91;100867.03;4920507;29;20032;-73
2021/10/06 09:35:16;;;;;;;2.58;0.25;;;;;;;19.57;44.80;100864.69;4900675;29;20027;-72
2021/10/06 09:37:58;;;;;;;1.33;0.20;;;;;;;20.76;44.36;100865.06;4917554;29;20039;-70
2021/10/06 09:40:30;;;;;;;0.85;0.45;;;;;;;21.57;40.42;100871.16;4925617;29;20035;-72
2021/10/06 09:42:59;;;;;;;0.65;0.38;;;;;;;21.88;37.83;100862.56;4916261;29;20044;-72
2021/10/06 09:45:36;;;;;;;1.25;0.43;;;;;;;22.09;37.00;100871.03;4925984;29;20481;-71
2021/10/06 09:48:15;;;;;;;2.13;0.10;;;;;;;22.22;36.00;100857.19;4909204;29;20036;-73
2021/10/06 09:50:49;;;;;;;0.80;0.30;;;;;;;22.46;36.12;100868.56;4919786;29;20028;-73
2021/10/06 09:53:17;;;;;;;0.40;0.20;;;;;;;22.68;36.78;100861.06;4903524;29;20096;-70
2021/10/06 09:55:45;;;;;;;4.30;0.40;;;;;;;23.26;35.72;100861.31;4926296;29;20028;-74
2021/10/06 09:58:12;;;;;;;0.73;0.35;;;;;;;23.80;33.44;100868.00;4934762;29;20028;-73
2021/10/06 10:00:40;;;;;;;2.55;0.40;;;;;;;24.22;32.68;100874.28;4895942;29;20032;-72
2021/10/06 10:03:07;;;;;;;0.50;0.20;;;;;;;24.99;33.56;100872.72;4905129;29;20043;-72
2021/10/06 10:05:36;;;;;;;0.45;0.20;;;;;;;25.86;31.29;100870.41;4905249;29;20043;-71
2021/10/06 10:08:03;;;;;;;1.00;0.20;;;;;;;26.17;28.96;100874.41;4921212;29;20076;-71
2021/10/06 10:10:32;;;;;;;0.20;0.10;;;;;;;26.12;29.40;100878.31;4903659;29;20114;-73
2021/10/06 10:12:58;;;;;;;0.10;0.10;;;;;;;26.75;30.05;100881.41;4902383;29;20110;-71
2021/10/06 10:15:24;;;;;;;0.35;0.10;;;;;;;27.11;27.27;100882.19;4901690;29;20036;-72
2021/10/06 10:17:55;;;;;;;0.52;0.10;;;;;;;27.48;27.15;100891.03;4901400;29;20039;-73
2021/10/06 10:20:21;;;;;;;0.95;0.10;;;;;;;27.79;27.44;100896.84;4915182;29;20052;-72
2021/10/06 10:22:56;;;;;;;0.32;0.10;;;;;;;28.63;26.50;100897.91;4892336;29;20036;-73
2021/10/06 10:25:27;;;;;;;0.30;0.15;;;;;;;28.58;25.22;100889.75;4919140;29;20032;-73
2021/10/06 10:28:05;;;;;;;1.38;0.10;;;;;;;27.96;25.31;100887.09;4903071;29;20058;-73
2021/10/06 10:30:34;;;;;;;0.90;0.20;;;;;;;27.49;25.02;100905.88;4895692;29;20027;-72
2021/10/06 10:33:00;;;;;;;0.28;0.15;;;;;;;27.10;26.29;100886.19;4917010;29;20035;-73
2021/10/06 10:45:44;;;;;;;0.65;0.20;;;;;;;28.55;25.61;100918.66;4912055;29;20474;-72
2021/10/06 10:48:12;;;;;;;2.63;0.22;;;;;;;29.04;25.17;100931.88;4907534;29;20048;-72
2021/10/06 10:50:46;;;;;;;0.13;0.00;;;;;;;29.77;24.79;100931.59;4915159;29;20166;-73
2021/10/06 10:53:16;;;;;;;0.25;0.10;;;;;;;30.63;23.49;100908.25;4910857;29;20119;-72
2021/10/06 10:55:58;;;;;;;0.05;0.03;;;;;;;30.68;21.84;100915.53;4903292;29;20032;-73
2021/10/06 10:58:35;;;;;;;0.05;0.00;;;;;;;30.67;21.77;100936.50;4916136;29;20508;-71
2021/10/06 11:01:04;;;;;;;0.30;0.13;;;;;;;30.43;22.46;100916.97;4896441;29;20028;-72
2021/10/06 11:03:30;;;;;;;0.13;0.00;;;;;;;30.21;21.47;100917.94;4913440;29;20028;-72
2021/10/06 11:05:58;;;;;;;0.20;0.10;;;;;;;29.17;22.90;100937.25;4915450;29;20040;-71
2021/10/06 11:08:27;;;;;;;0.20;0.10;;;;;;;28.68;24.58;100939.78;4914824;29;20091;-71
2021/10/06 11:11:14;;;;;;;0.43;0.20;;;;;;;29.08;24.65;100948.81;4913958;29;20474;-71
2021/10/06 11:13:41;;;;;;;0.20;0.10;;;;;;;29.65;24.42;100948.75;4919913;29;20028;-74
2021/10/06 11:16:07;;;;;;;0.43;0.30;;;;;;;30.14;23.00;100940.44;4918134;29;20474;-74
2021/10/06 11:18:47;;;;;;;0.28;0.10;;;;;;;30.55;22.66;100944.06;4919136;29;20055;-73
2021/10/06 11:21:37;;;;;;;0.32;0.10;;;;;;;31.30;21.87;100932.44;4924689;29;20040;-72
2021/10/06 11:24:20;;;;;;;0.28;0.20;;;;;;;31.63;22.00;100941.09;4937785;29;20400;-72
2021/10/06 11:26:47;;;;;;;0.10;0.10;;;;;;;32.14;21.81;100959.81;4920441;29;20419;-72
2021/10/06 11:29:13;;;;;;;0.68;0.20;;;;;;;32.79;22.01;100965.50;4920892;29;20087;-71
2021/10/06 11:31:40;;;;;;;0.00;0.00;;;;;;;33.81;21.23;100966.81;4897848;29;20027;-73
2021/10/06 11:34:14;;;;;;;0.45;0.20;;;;;;;34.30;19.42;100980.31;4919238;29;20078;-75
2021/10/06 11:36:48;;;;;;;1.80;0.30;;;;;;;33.32;18.18;100966.59;4916479;29;20020;-73
2021/10/06 11:39:14;;;;;;;0.57;0.10;;;;;;;32.09;20.04;100979.16;4916631;29;20118;-73
2021/10/06 11:41:44;;;;;;;0.20;0.08;;;;;;;31.13;21.01;100967.88;4903100;29;20051;-73
2021/10/06 11:44:15;;;;;;;0.10;0.10;;;;;;;30.83;22.39;100964.44;4916403;29;20518;-72
2021/10/06 11:46:41;;;;;;;0.88;0.13;;;;;;;31.15;21.77;100968.28;4925826;29;20027;-73
2021/10/06 11:49:09;;;;;;;0.52;0.35;;;;;;;31.62;21.48;100976.22;4921465;29;20382;-74
2021/10/06 11:51:42;;;;;;;0.52;0.20;;;;;;;32.50;21.30;100976.78;4919640;29;20032;-72
2021/10/06 11:54:08;;;;;;;0.43;0.20;;;;;;;32.93;20.12;100978.84;4924359;29;20078;-73
2021/10/06 11:56:34;;;;;;;0.30;0.10;;;;;;;33.14;18.96;100985.66;4919122;29;20478;-72
2021/10/06 11:59:08;;;;;;;0.45;0.10;;;;;;;32.47;18.94;100994.59;4922385;29;20035;-74
2021/10/06 12:01:35;;;;;;;0.50;0.10;;;;;;;31.28;20.89;100999.84;4916478;29;20099;-74
2021/10/06 12:04:14;;;;;;;0.30;0.20;;;;;;;30.79;21.16;100990.59;4900156;29;20024;-74
2021/10/06 12:06:42;;;;;;;0.47;0.22;;;;;;;31.00;21.29;101000.44;4913149;29;20103;-71
2021/10/06 12:09:09;;;;;;;0.40;0.20;;;;;;;31.19;20.98;100987.25;4917307;29;20157;-74
2021/10/06 12:11:41;;;;;;;0.73;0.28;;;;;;;31.93;21.34;100993.66;4899917;29;20100;-73
2021/10/06 12:14:20;;;;;;;0.80;0.80;;;;;;;32.41;19.90;101001.88;4923777;29;20086;-74
2021/10/06 12:16:49;;;;;;;1.65;0.60;;;;;;;32.01;20.39;101000.97;4913290;29;20103;-72
2021/10/06 12:19:22;;;;;;;1.00;0.45;;;;;;;32.10;20.43;101004.22;4921464;29;20502;-72
2021/10/06 12:21:48;;;;;;;2.97;0.28;;;;;;;32.02;20.33;100994.09;4929706;29;20024;-73
2021/10/06 12:24:16;;;;;;;1.58;0.40;;;;;;;32.12;20.92;100996.16;4915023;29;20620;-72
2021/10/06 12:26:42;;;;;;;0.65;0.32;;;;;;;32.47;20.44;100983.25;4919147;29;20439;-73
2021/10/06 12:29:07;;;;;;;1.75;0.38;;;;;;;32.10;19.77;100984.41;4922659;29;20039;-73
2021/10/06 12:31:33;;;;;;;3.22;0.20;;;;;;;31.71;20.76;100987.94;4921800;29;20769;-73
2021/10/06 12:34:11;;;;;;;0.43;0.25;;;;;;;32.26;21.17;100988.94;4914930;29;20070;-74
2021/10/06 12:36:44;;;;;;;0.43;0.25;;;;;;;32.64;20.54;100989.34;4934408;29;20429;-72
2021/10/06 12:39:22;;;;;;;0.77;0.20;;;;;;;32.51;19.72;101000.28;4913973;29;20043;-72
2021/10/06 12:41:52;;;;;;;1.00;0.40;;;;;;;32.18;20.11;100994.56;4922251;29;20104;-73
2021/10/06 12:44:24;;;;;;;0.55;0.32;;;;;;;32.27;20.28;101002.69;4910057;29;20039;-72
2021/10/06 12:46:50;;;;;;;0.75;0.35;;;;;;;32.61;20.75;101002.28;4914565;29;20054;-72
2021/10/06 12:49:17;;;;;;;1.13;0.25;;;;;;;33.50;20.40;101008.25;4896155;29;20044;-71
2021/10/06 12:51:51;;;;;;;0.75;0.10;;;;;;;34.31;19.03;101007.47;4928871;29;20052;-71
2021/10/06 12:54:25;;;;;;;0.77;0.40;;;;;;;34.42;18.44;101013.88;4910378;29;20474;-72
2021/10/06 12:56:51;;;;;;;2.25;0.20;;;;;;;34.34;18.58;101015.16;4918803;29;20032;-72
2021/10/06 12:59:17;;;;;;;3.35;0.50;;;;;;;33.14;18.77;101003.47;4912277;29;20489;-71
2021/10/06 13:01:47;;;;;;;1.17;0.30;;;;;;;31.77;20.35;101000.47;4913101;29;20035;-73
2021/10/06 13:04:14;;;;;;;2.50;0.30;;;;;;;30.56;21.29;101001.31;4892292;29;20476;-72
2021/10/06 13:06:41;;;;;;;3.83;0.40;;;;;;;29.49;22.96;100999.69;4914319;29;20171;-73
2021/10/06 13:09:06;;;;;;;1.45;0.20;;;;;;;28.87;24.13;101005.59;4910961;29;20028;-72
2021/10/06 13:11:35;;;;;;;1.50;0.20;;;;;;;29.05;24.60;100992.59;4916982;29;20481;-72
2021/10/06 13:14:02;;;;;;;0.52;0.20;;;;;;;29.16;24.69;100991.94;4914960;29;20040;-72
2021/10/06 13:16:27;;;;;;;1.02;0.20;;;;;;;29.77;24.09;100982.34;4917341;29;20486;-72
2021/10/06 13:18:54;;;;;;;2.08;0.10;;;;;;;30.27;24.08;100981.25;4916615;29;20043;-72
2021/10/06 13:21:21;;;;;;;1.95;0.30;;;;;;;31.25;23.17;100977.19;4899508;29;20016;-72
2021/10/06 13:23:46;;;;;;;0.50;0.20;;;;;;;32.39;22.85;100981.66;4918358;29;20078;-73
2021/10/06 13:26:12;;;;;;;0.90;0.38;;;;;;;33.30;20.59;100982.41;4900310;29;20032;-71
2021/10/06 13:28:43;;;;;;;1.33;0.10;;;;;;;33.96;21.07;100984.56;4918858;29;20096;-71
2021/10/06 13:31:09;;;;;;;0.68;0.20;;;;;;;35.09;20.37;100986.13;4902800;29;20024;-71
2021/10/06 13:33:36;;;;;;;0.50;0.20;;;;;;;36.31;18.99;100992.28;4902102;29;20028;-72
2021/10/06 13:36:02;;;;;;;0.60;0.28;;;;;;;36.74;17.53;100987.94;4919929;29;20042;-72
2021/10/06 13:38:28;;;;;;;0.98;0.22;;;;;;;37.10;17.27;100992.97;4914776;29;20355;-74
2021/10/06 13:40:54;;;;;;;1.50;0.40;;;;;;;36.92;16.93;100999.03;4923324;29;20039;-74
2021/10/06 13:43:19;;;;;;;0.20;0.20;;;;;;;36.99;17.52;100996.03;4918196;29;20024;-73
2021/10/06 13:45:45;;;;;;;1.60;0.30;;;;;;;37.33;16.28;101006.41;4920711;29;20582;-73
2021/10/06 13:48:11;;;;;;;0.80;0.50;;;;;;;36.63;16.02;101005.19;4906412;29;20067;-74
2021/10/06 13:50:38;;;;;;;0.28;0.28;;;;;;;35.94;16.83;101011.13;4932702;29;20637;-73
2021/10/06 13:53:04;;;;;;;0.68;0.20;;;;;;;35.81;17.60;101007.25;4919673;29;20036;-74
2021/10/06 13:55:30;;;;;;;2.25;0.50;;;;;;;35.87;17.07;101001.88;4899829;29;20467;-73
2021/10/06 13:57:56;;;;;;;2.00;0.30;;;;;;;35.74;17.51;101013.00;4916494;29;20047;-73
2021/10/06 14:00:22;;;;;;;0.82;0.28;;;;;;;35.87;17.76;101018.94;4915708;29;20020;-72
2021/10/06 14:02:47;;;;;;;0.63;0.35;;;;;;;36.39;17.50;101017.78;4915612;29;20064;-73
2021/10/06 14:05:13;;;;;;;0.57;0.30;;;;;;;36.50;16.32;101018.44;4917237;29;20060;-72
2021/10/06 14:07:39;;;;;;;0.52;0.28;;;;;;;36.30;17.01;101016.31;4915825;29;20032;-72
2021/10/06 14:10:05;;;;;;;0.73;0.30;;;;;;;35.71;17.13;101030.91;4902244;29;20060;-73
2021/10/06 14:12:30;;;;;;;0.95;0.15;;;;;;;34.96;16.92;101021.97;4900846;29;20088;-71
2021/10/06 14:14:56;;;;;;;4.22;0.30;;;;;;;33.17;18.22;101024.50;4918710;29;20035;-72
2021/10/06 14:17:21;;;;;;;0.82;0.40;;;;;;;31.80;20.27;101011.00;4916194;29;20748;-71
2021/10/06 14:19:47;;;;;;;0.38;0.10;;;;;;;31.34;19.95;101020.06;4920387;29;20389;-73
2021/10/06 14:22:12;;;;;;;0.13;0.13;;;;;;;29.98;21.71;101026.09;4912502;29;20035;-71
2021/10/06 14:24:38;;;;;;;0.57;0.20;;;;;;;28.52;23.11;101004.59;4920954;28;20071;-72
2021/10/06 14:27:09;;;;;;;0.52;0.10;;;;;;;27.83;24.19;101005.28;4933646;29;20048;-72
2021/10/06 14:29:35;;;;;;;1.17;0.20;;;;;;;27.36;25.35;101006.28;4900496;29;20080;-72
2021/10/06 14:32:00;;;;;;;1.27;0.20;;;;;;;27.31;26.51;101012.19;4919135;29;20064;-73
2021/10/06 14:34:25;;;;;;;0.80;0.30;;;;;;;27.80;25.98;101008.00;4917466;29;20058;-71
2021/10/06 14:36:51;;;;;;;1.73;0.30;;;;;;;28.86;24.75;101009.59;4918752;29;20032;-70
2021/10/06 14:39:16;;;;;;;0.52;0.20;;;;;;;29.84;24.00;101020.28;4915013;29;20095;-72
2021/10/06 14:41:42;;;;;;;0.40;0.10;;;;;;;30.21;22.96;101027.94;4922008;29;20158;-73
2021/10/06 14:44:07;;;;;;;1.67;0.25;;;;;;;30.80;23.25;101020.47;4919863;29;20047;-74
2021/10/06 14:46:33;;;;;;;0.47;0.20;;;;;;;31.72;22.48;101031.97;4908829;29;20028;-76
2021/10/06 14:48:58;;;;;;;0.60;0.25;;;;;;;31.83;21.22;101030.00;4920203;29;20035;-74
2021/10/06 14:51:26;;;;;;;0.68;0.30;;;;;;;31.47;21.99;101024.16;4922072;29;20116;-75
2021/10/06 14:53:52;;;;;;;3.47;0.40;;;;;;;31.43;22.16;101028.97;4905859;29;20046;-74
2021/10/06 14:56:18;;;;;;;2.67;0.35;;;;;;;31.66;22.15;101025.09;4894713;29;20032;-73
2021/10/06 14:58:44;;;;;;;0.88;0.20;;;;;;;32.10;21.65;101015.53;4916428;29;20036;-73
2021/10/06 15:01:10;;;;;;;0.98;0.30;;;;;;;32.39;21.36;101015.63;4919298;29;20028;-73
2021/10/06 15:03:35;;;;;;;0.73;0.28;;;;;;;32.46;20.89;101004.31;4899586;29;20496;-73
2021/10/06 15:06:01;;;;;;;2.95;0.38;;;;;;;32.54;21.18;101008.75;4900062;29;20048;-74
2021/10/06 15:08:48;;;;;;;0.60;0.20;;;;;;;32.87;21.20;101003.94;4910014;29;20023;-75
2021/10/06 15:11:13;;;;;;;4.85;0.50;;;;;;;33.05;20.90;101020.09;4912604;29;20513;-73
2021/10/06 15:13:40;;;;;;;1.33;0.40;;;;;;;32.78;20.59;101020.50;4899453;29;20103;-74
2021/10/06 15:16:06;;;;;;;0.60;0.32;;;;;;;31.39;21.30;101014.00;4925956;29;20036;-72
2021/10/06 15:18:31;;;;;;;0.90;0.30;;;;;;;29.94;23.44;101025.22;4915272;29;20095;-73
2021/10/06 15:20:57;;;;;;;0.90;0.20;;;;;;;29.50;23.99;101028.69;4927750;29;20029;-77
2021/10/06 15:23:23;;;;;;;0.82;0.30;;;;;;;30.00;23.93;101031.34;4906993;29;20024;-75
2021/10/06 15:29:10;;;;;;;0.57;0.20;;;;;;;28.28;24.02;101022.63;4922581;29;20050;-73
2021/10/06 15:32:14;;;;;;;0.77;0.20;;;;;;;26.46;26.12;101043.34;4899683;29;20112;-74
2021/10/06 15:35:33;;;;;;;3.35;0.32;;;;;;;26.29;27.96;101031.28;4922513;29;20039;-72
2021/10/06 15:38:02;;;;;;;0.13;0.10;;;;;;;26.39;27.35;101037.53;4918586;29;20052;-72
2021/10/06 15:40:27;;;;;;;1.17;0.25;;;;;;;26.76;26.98;101023.28;4898884;29;20503;-73
2021/10/06 15:42:53;;;;;;;0.50;0.10;;;;;;;27.08;26.17;101021.28;4902358;29;20463;-73
2021/10/06 15:45:20;;;;;;;0.95;0.52;;;;;;;26.63;26.35;101019.72;4912442;29;20099;-73
2021/10/06 15:47:46;;;;;;;0.40;0.20;;;;;;;25.46;27.73;101025.25;4918074;29;20104;-74
2021/10/06 15:50:17;;;;;;;4.68;0.45;;;;;;;24.33;29.45;101030.31;4917020;29;20485;-74
2021/10/06 15:52:45;;;;;;;3.47;0.20;;;;;;;23.84;30.79;101031.72;4922797;29;20024;-72
2021/10/06 15:55:11;;;;;;;0.20;0.10;;;;;;;24.78;31.29;101039.84;4915870;29;20458;-71
2021/10/06 15:57:36;;;;;;;0.80;0.20;;;;;;;26.01;30.06;101041.72;4918199;29;20039;-72
2021/10/06 16:00:05;;;;;;;2.70;0.65;;;;;;;27.15;28.63;101051.50;4907982;29;20035;-73
2021/10/06 16:02:32;;;;;;;0.63;0.17;;;;;;;27.98;27.26;101045.78;4918767;29;20152;-72
2021/10/06 16:04:57;;;;;;;1.27;0.35;;;;;;;28.01;26.05;101053.44;4910813;29;20035;-75
2021/10/06 16:07:23;;;;;;;0.65;0.30;;;;;;;27.08;27.07;101056.94;4919082;29;20028;-72
2021/10/06 16:09:48;;;;;;;3.33;0.40;;;;;;;25.82;29.42;101040.34;4914592;29;20098;-75
2021/10/06 16:12:14;;;;;;;1.85;0.28;;;;;;;25.29;30.81;101045.09;4921349;29;20088;-75
2021/10/06 16:14:39;;;;;;;0.55;0.28;;;;;;;25.71;31.38;101047.59;4921444;29;20117;-75
2021/10/06 16:17:06;;;;;;;0.57;0.40;;;;;;;26.32;30.28;101040.97;4904787;29;20506;-78
2021/10/06 16:19:33;;;;;;;0.88;0.45;;;;;;;26.35;30.06;101036.63;4922993;29;20034;-74
2021/10/06 16:22:00;;;;;;;1.17;0.30;;;;;;;26.36;30.29;101035.47;4903482;29;20043;-73
2021/10/06 16:24:27;;;;;;;1.58;0.30;;;;;;;26.59;30.05;101038.44;4909060;29;20119;-72
2021/10/06 16:26:52;;;;;;;1.58;0.40;;;;;;;26.72;30.23;101034.44;4930752;29;20054;-74
2021/10/06 16:29:36;;;;;;;0.40;0.32;;;;;;;26.38;30.00;101035.91;4905539;29;20039;-75
2021/10/06 16:35:16;;;;;;;0.32;0.20;;;;;;;25.06;32.30;101059.56;5339088;23;20075;-72
2021/10/06 16:37:41;;;;;;;6.53;0.68;;;;;;;25.22;33.01;101063.28;4923518;29;20064;-71
2021/10/06 16:40:29;;;;;;;;;;;;;;;;;;;;;
2021/10/06 16:43:05;;;;;;;0.80;0.22;;;;;;;25.90;32.02;101063.78;4921021;29;20020;-72
2021/10/06 16:45:30;;;;;;;0.25;0.25;;;;;;;25.61;32.21;101065.72;4928879;29;20449;-74
2021/10/06 16:47:56;;;;;;;3.05;0.47;;;;;;;24.80;33.16;101071.09;4930719;29;20035;-76
2021/10/06 16:51:21;;;;;;;3.60;0.32;;;;;;;24.05;34.31;101075.63;4936003;29;20024;-76
2021/10/06 16:59:55;;;;;;;0.73;0.68;;;;;;;24.31;34.09;101066.16;4935002;29;20082;-74
2021/10/06 17:03:02;;;;;;;2.05;0.40;;;;;;;24.10;34.50;101078.19;4902490;29;20036;-76
2021/10/06 17:05:27;;;;;;;0.80;0.50;;;;;;;23.59;35.46;101091.38;4919634;29;20434;-74
2021/10/06 17:07:53;;;;;;;1.80;0.38;;;;;;;23.20;35.50;101088.63;4927421;29;20072;-75
2021/10/06 17:10:19;;;;;;;5.35;0.40;;;;;;;22.76;36.19;101088.78;4932073;29;20031;-75
2021/10/06 17:13:13;;;;;;;0.85;0.30;;;;;;;22.03;36.64;101091.50;4931427;29;20050;-75
2021/10/06 17:22:03;;;;;;;0.35;0.25;;;;;;;20.23;40.46;101108.44;4873891;29;20479;-73
2021/10/06 17:24:36;;;;;;;0.70;0.30;;;;;;;19.74;41.23;101090.66;4906158;29;20028;-74
2021/10/06 17:27:05;;;;;;;2.08;0.30;;;;;;;19.50;41.60;101091.75;4881803;29;20028;-74
2021/10/06 17:29:30;;;;;;;0.63;0.30;;;;;;;19.33;42.51;101109.84;4898784;29;20467;-75
2021/10/06 17:31:58;;;;;;;0.38;0.20;;;;;;;19.08;42.77;101110.34;4902246;29;20040;-75
2021/10/06 17:34:23;;;;;;;0.10;0.10;;;;;;;18.86;42.71;101111.84;4887718;29;20048;-75
2021/10/06 17:44:37;;;;;;;;;;;;;;;;;;;;;